sensor_id;sensor_type;location;lat;lon;timestamp;pressure;altitude;pressure_sealevel;temperature;humidity
82949;BME280;72736;50.236;18.876;2024-03-02T00:01:34;98082.91;;;8.35;82.82
82949;BME280;72736;50.236;18.876;2024-03-02T00:06:36;98082.20;;;8.30;82.71
82949;BME280;72736;50.236;18.876;2024-03-02T00:11:40;98080.84;;;8.27;82.35
82949;BME280;72736;50.236;18.876;2024-03-02T00:16:43;98073.73;;;8.23;82.07
82949;BME280;72736;50.236;18.876;2024-03-02T00:21:46;98073.94;;;8.17;81.56
82949;BME280;72736;50.236;18.876;2024-03-02T00:26:50;98077.44;;;8.11;81.69
82949;BME280;72736;50.236;18.876;2024-03-02T00:31:53;98089.73;;;8.04;81.92
82949;BME280;72736;50.236;18.876;2024-03-02T00:36:59;98091.33;;;8.00;81.72
82949;BME280;72736;50.236;18.876;2024-03-02T00:42:03;98082.03;;;7.97;81.50
82949;BME280;72736;50.236;18.876;2024-03-02T00:47:06;98086.86;;;7.94;81.44
82949;BME280;72736;50.236;18.876;2024-03-02T00:52:10;98091.11;;;7.88;81.52
82949;BME280;72736;50.236;18.876;2024-03-02T00:57:14;98088.85;;;7.83;81.46
82949;BME280;72736;50.236;18.876;2024-03-02T01:02:18;98084.87;;;7.79;81.44
82949;BME280;72736;50.236;18.876;2024-03-02T01:07:22;98081.41;;;7.70;81.44
82949;BME280;72736;50.236;18.876;2024-03-02T01:12:25;98083.86;;;7.62;81.43
82949;BME280;72736;50.236;18.876;2024-03-02T01:17:28;98078.09;;;7.60;81.61
82949;BME280;72736;50.236;18.876;2024-03-02T01:22:31;98068.36;;;7.59;81.50
82949;BME280;72736;50.236;18.876;2024-03-02T01:27:34;98059.55;;;7.57;81.53
82949;BME280;72736;50.236;18.876;2024-03-02T01:32:38;98056.11;;;7.55;81.77
82949;BME280;72736;50.236;18.876;2024-03-02T01:37:41;98054.70;;;7.52;81.72
82949;BME280;72736;50.236;18.876;2024-03-02T01:42:44;98050.97;;;7.49;82.00
82949;BME280;72736;50.236;18.876;2024-03-02T01:47:47;98047.47;;;7.42;81.89
82949;BME280;72736;50.236;18.876;2024-03-02T01:52:51;98048.42;;;7.40;82.06
82949;BME280;72736;50.236;18.876;2024-03-02T01:57:54;98041.61;;;7.37;82.04
82949;BME280;72736;50.236;18.876;2024-03-02T02:02:57;98038.09;;;7.36;81.92
82949;BME280;72736;50.236;18.876;2024-03-02T02:08:01;98037.50;;;7.35;81.93
82949;BME280;72736;50.236;18.876;2024-03-02T02:13:04;98036.29;;;7.34;81.75
82949;BME280;72736;50.236;18.876;2024-03-02T02:18:07;98034.17;;;7.31;81.43
82949;BME280;72736;50.236;18.876;2024-03-02T02:23:10;98027.88;;;7.28;81.50
82949;BME280;72736;50.236;18.876;2024-03-02T02:28:15;98026.25;;;7.26;81.10
82949;BME280;72736;50.236;18.876;2024-03-02T02:33:18;98025.45;;;7.23;81.04
82949;BME280;72736;50.236;18.876;2024-03-02T02:38:21;98025.48;;;7.19;80.82
82949;BME280;72736;50.236;18.876;2024-03-02T02:43:24;98018.70;;;7.15;81.07
82949;BME280;72736;50.236;18.876;2024-03-02T02:48:27;98018.96;;;7.12;81.05
82949;BME280;72736;50.236;18.876;2024-03-02T02:53:31;98021.77;;;7.08;81.25
82949;BME280;72736;50.236;18.876;2024-03-02T02:58:34;98029.73;;;7.06;81.70
82949;BME280;72736;50.236;18.876;2024-03-02T03:03:37;98024.84;;;7.06;81.79
82949;BME280;72736;50.236;18.876;2024-03-02T03:08:39;98028.36;;;7.08;81.98
82949;BME280;72736;50.236;18.876;2024-03-02T03:13:42;98026.66;;;7.06;81.95
82949;BME280;72736;50.236;18.876;2024-03-02T03:18:45;98034.34;;;7.06;81.68
82949;BME280;72736;50.236;18.876;2024-03-02T03:23:48;98036.41;;;7.03;81.53
82949;BME280;72736;50.236;18.876;2024-03-02T03:28:52;98033.39;;;7.01;81.48
82949;BME280;72736;50.236;18.876;2024-03-02T03:33:55;98031.89;;;7.00;81.61
82949;BME280;72736;50.236;18.876;2024-03-02T03:38:58;98030.53;;;7.00;81.56
82949;BME280;72736;50.236;18.876;2024-03-02T03:44:00;98035.73;;;6.99;81.92
82949;BME280;72736;50.236;18.876;2024-03-02T03:49:03;98038.80;;;7.00;82.06
82949;BME280;72736;50.236;18.876;2024-03-02T03:54:07;98031.84;;;7.01;82.03
82949;BME280;72736;50.236;18.876;2024-03-02T03:59:10;98029.79;;;7.01;82.40
82949;BME280;72736;50.236;18.876;2024-03-02T04:04:13;98025.52;;;7.01;82.44
82949;BME280;72736;50.236;18.876;2024-03-02T04:09:17;98020.85;;;7.03;82.38
82949;BME280;72736;50.236;18.876;2024-03-02T04:14:20;98020.77;;;7.04;82.50
82949;BME280;72736;50.236;18.876;2024-03-02T04:19:24;98013.89;;;7.02;82.64
82949;BME280;72736;50.236;18.876;2024-03-02T04:24:28;98014.89;;;6.99;82.82
82949;BME280;72736;50.236;18.876;2024-03-02T04:29:31;98020.95;;;7.00;82.61
82949;BME280;72736;50.236;18.876;2024-03-02T04:34:34;98030.65;;;7.00;82.62
82949;BME280;72736;50.236;18.876;2024-03-02T04:39:37;98035.09;;;6.99;82.53
82949;BME280;72736;50.236;18.876;2024-03-02T04:44:40;98035.50;;;6.97;82.65
82949;BME280;72736;50.236;18.876;2024-03-02T04:49:43;98036.30;;;6.93;82.77
82949;BME280;72736;50.236;18.876;2024-03-02T04:54:46;98031.07;;;6.90;82.50
82949;BME280;72736;50.236;18.876;2024-03-02T05:00:13;98029.98;;;6.83;82.92
82949;BME280;72736;50.236;18.876;2024-03-02T05:05:16;98026.92;;;6.80;82.76
82949;BME280;72736;50.236;18.876;2024-03-02T05:10:19;98030.95;;;6.79;82.73
82949;BME280;72736;50.236;18.876;2024-03-02T05:15:22;98041.91;;;6.76;82.42
82949;BME280;72736;50.236;18.876;2024-03-02T05:20:25;98049.66;;;6.73;82.23
82949;BME280;72736;50.236;18.876;2024-03-02T05:25:28;98059.06;;;6.70;82.64
82949;BME280;72736;50.236;18.876;2024-03-02T05:30:31;98058.88;;;6.69;82.53
82949;BME280;72736;50.236;18.876;2024-03-02T05:35:34;98062.02;;;6.68;82.61
82949;BME280;72736;50.236;18.876;2024-03-02T05:40:37;98063.60;;;6.64;82.54
82949;BME280;72736;50.236;18.876;2024-03-02T05:45:40;98067.70;;;6.59;82.61
82949;BME280;72736;50.236;18.876;2024-03-02T05:50:43;98069.60;;;6.51;82.78
82949;BME280;72736;50.236;18.876;2024-03-02T05:55:46;98075.30;;;6.49;83.10
82949;BME280;72736;50.236;18.876;2024-03-02T06:00:55;98078.34;;;6.47;83.27
82949;BME280;72736;50.236;18.876;2024-03-02T06:05:59;98085.29;;;6.48;83.46
82949;BME280;72736;50.236;18.876;2024-03-02T06:11:03;98087.24;;;6.53;83.26
82949;BME280;72736;50.236;18.876;2024-03-02T06:16:07;98089.61;;;6.56;83.47
82949;BME280;72736;50.236;18.876;2024-03-02T06:21:10;98090.42;;;6.58;83.52
82949;BME280;72736;50.236;18.876;2024-03-02T06:26:13;98093.52;;;6.61;83.67
82949;BME280;72736;50.236;18.876;2024-03-02T06:31:16;98096.52;;;6.65;83.54
82949;BME280;72736;50.236;18.876;2024-03-02T06:36:19;98102.23;;;6.70;83.75
82949;BME280;72736;50.236;18.876;2024-03-02T06:41:22;98098.63;;;6.73;83.69
82949;BME280;72736;50.236;18.876;2024-03-02T06:46:25;98098.74;;;6.76;83.84
82949;BME280;72736;50.236;18.876;2024-03-02T06:51:27;98097.21;;;6.80;83.80
82949;BME280;72736;50.236;18.876;2024-03-02T06:56:30;98100.98;;;6.83;83.76
82949;BME280;72736;50.236;18.876;2024-03-02T07:01:35;98102.23;;;6.87;83.86
82949;BME280;72736;50.236;18.876;2024-03-02T07:06:38;98094.42;;;6.91;83.80
82949;BME280;72736;50.236;18.876;2024-03-02T07:11:41;98095.25;;;6.91;83.98
82949;BME280;72736;50.236;18.876;2024-03-02T07:16:44;98104.70;;;6.91;84.13
82949;BME280;72736;50.236;18.876;2024-03-02T07:21:47;98105.43;;;6.95;84.00
82949;BME280;72736;50.236;18.876;2024-03-02T07:26:50;98107.36;;;6.98;84.15
82949;BME280;72736;50.236;18.876;2024-03-02T07:31:57;98109.88;;;7.02;84.05
82949;BME280;72736;50.236;18.876;2024-03-02T07:36:59;98113.10;;;7.06;84.27
82949;BME280;72736;50.236;18.876;2024-03-02T07:42:03;98122.51;;;7.12;84.31
82949;BME280;72736;50.236;18.876;2024-03-02T07:47:07;98124.23;;;7.18;84.48
82949;BME280;72736;50.236;18.876;2024-03-02T07:52:10;98121.68;;;7.23;84.40
82949;BME280;72736;50.236;18.876;2024-03-02T07:57:13;98129.27;;;7.31;84.37
82949;BME280;72736;50.236;18.876;2024-03-02T08:02:16;98132.55;;;7.39;84.37
82949;BME280;72736;50.236;18.876;2024-03-02T08:07:19;98131.28;;;7.46;84.59
82949;BME280;72736;50.236;18.876;2024-03-02T08:12:22;98133.79;;;7.54;84.36
82949;BME280;72736;50.236;18.876;2024-03-02T08:17:26;98131.77;;;7.61;84.33
82949;BME280;72736;50.236;18.876;2024-03-02T08:22:29;98134.52;;;7.71;84.42
82949;BME280;72736;50.236;18.876;2024-03-02T08:27:32;98135.54;;;7.83;84.17
82949;BME280;72736;50.236;18.876;2024-03-02T08:32:37;98134.86;;;7.94;84.17
82949;BME280;72736;50.236;18.876;2024-03-02T08:37:42;98134.36;;;8.05;84.03
82949;BME280;72736;50.236;18.876;2024-03-02T08:42:45;98133.41;;;8.18;83.84
82949;BME280;72736;50.236;18.876;2024-03-02T08:47:48;98135.27;;;8.33;83.56
82949;BME280;72736;50.236;18.876;2024-03-02T08:52:51;98135.41;;;8.46;83.57
82949;BME280;72736;50.236;18.876;2024-03-02T08:57:55;98142.27;;;8.55;83.46
82949;BME280;72736;50.236;18.876;2024-03-02T09:02:58;98147.70;;;8.64;83.43
82949;BME280;72736;50.236;18.876;2024-03-02T09:08:02;98152.13;;;8.70;83.27
82949;BME280;72736;50.236;18.876;2024-03-02T09:13:06;98154.42;;;8.76;82.98
82949;BME280;72736;50.236;18.876;2024-03-02T09:18:09;98155.60;;;8.81;82.76
82949;BME280;72736;50.236;18.876;2024-03-02T09:23:12;98152.94;;;8.84;82.73
82949;BME280;72736;50.236;18.876;2024-03-02T09:28:15;98153.86;;;8.90;82.59
82949;BME280;72736;50.236;18.876;2024-03-02T09:33:18;98156.45;;;8.98;82.56
82949;BME280;72736;50.236;18.876;2024-03-02T09:38:22;98155.64;;;9.07;82.40
82949;BME280;72736;50.236;18.876;2024-03-02T09:43:25;98160.69;;;9.16;82.82
82949;BME280;72736;50.236;18.876;2024-03-02T09:48:28;98157.84;;;9.24;82.34
82949;BME280;72736;50.236;18.876;2024-03-02T09:53:32;98161.89;;;9.30;82.14
82949;BME280;72736;50.236;18.876;2024-03-02T09:58:35;98163.55;;;9.34;82.03
82949;BME280;72736;50.236;18.876;2024-03-02T10:03:38;98163.48;;;9.41;81.83
82949;BME280;72736;50.236;18.876;2024-03-02T10:08:44;98164.25;;;9.48;81.84
82949;BME280;72736;50.236;18.876;2024-03-02T10:13:47;98163.30;;;9.55;81.72
82949;BME280;72736;50.236;18.876;2024-03-02T10:18:51;98160.80;;;9.63;81.33
82949;BME280;72736;50.236;18.876;2024-03-02T10:24:07;98160.56;;;9.67;81.12
82949;BME280;72736;50.236;18.876;2024-03-02T10:29:10;98158.59;;;9.70;80.99
82949;BME280;72736;50.236;18.876;2024-03-02T10:34:14;98159.16;;;9.72;80.68
82949;BME280;72736;50.236;18.876;2024-03-02T10:39:18;98156.30;;;9.74;80.54
82949;BME280;72736;50.236;18.876;2024-03-02T10:44:22;98156.55;;;9.77;80.53
82949;BME280;72736;50.236;18.876;2024-03-02T10:49:27;98167.20;;;9.81;80.46
82949;BME280;72736;50.236;18.876;2024-03-02T10:54:30;98171.00;;;9.85;79.92
82949;BME280;72736;50.236;18.876;2024-03-02T10:59:47;98168.23;;;9.86;79.56
82949;BME280;72736;50.236;18.876;2024-03-02T11:04:55;98171.71;;;9.90;80.07
82949;BME280;72736;50.236;18.876;2024-03-02T11:10:01;98175.38;;;9.97;79.79
82949;BME280;72736;50.236;18.876;2024-03-02T11:15:11;98169.10;;;9.98;79.53
82949;BME280;72736;50.236;18.876;2024-03-02T11:20:20;98172.86;;;10.01;78.99
82949;BME280;72736;50.236;18.876;2024-03-02T11:25:24;98169.67;;;10.00;79.00
82949;BME280;72736;50.236;18.876;2024-03-02T11:30:50;98162.09;;;9.99;78.59
82949;BME280;72736;50.236;18.876;2024-03-02T11:35:54;98155.01;;;9.96;78.18
82949;BME280;72736;50.236;18.876;2024-03-02T11:41:00;98158.44;;;9.96;78.34
82949;BME280;72736;50.236;18.876;2024-03-02T11:46:06;98155.84;;;9.95;78.12
82949;BME280;72736;50.236;18.876;2024-03-02T11:51:12;98146.53;;;9.95;78.28
82949;BME280;72736;50.236;18.876;2024-03-02T11:56:16;98148.61;;;9.99;78.06
82949;BME280;72736;50.236;18.876;2024-03-02T12:01:19;98141.91;;;10.05;78.17
82949;BME280;72736;50.236;18.876;2024-03-02T12:06:23;98141.75;;;10.12;78.23
82949;BME280;72736;50.236;18.876;2024-03-02T12:11:27;98144.95;;;10.18;78.07
82949;BME280;72736;50.236;18.876;2024-03-02T12:16:30;98142.42;;;10.24;78.20
82949;BME280;72736;50.236;18.876;2024-03-02T12:21:33;98143.58;;;10.30;78.15
82949;BME280;72736;50.236;18.876;2024-03-02T12:26:36;98146.21;;;10.35;78.40
82949;BME280;72736;50.236;18.876;2024-03-02T12:31:39;98143.48;;;10.42;78.78
82949;BME280;72736;50.236;18.876;2024-03-02T12:36:43;98143.93;;;10.48;79.12
82949;BME280;72736;50.236;18.876;2024-03-02T12:41:50;98147.27;;;10.51;79.07
82949;BME280;72736;50.236;18.876;2024-03-02T12:46:53;98149.77;;;10.52;79.32
82949;BME280;72736;50.236;18.876;2024-03-02T12:52:01;98148.63;;;10.51;79.37
82949;BME280;72736;50.236;18.876;2024-03-02T12:57:05;98149.51;;;10.52;79.63
82949;BME280;72736;50.236;18.876;2024-03-02T13:02:17;98148.08;;;10.53;79.79
82949;BME280;72736;50.236;18.876;2024-03-02T13:07:21;98145.96;;;10.57;80.26
82949;BME280;72736;50.236;18.876;2024-03-02T13:12:25;98143.23;;;10.59;80.64
82949;BME280;72736;50.236;18.876;2024-03-02T13:17:28;98143.97;;;10.61;80.92
82949;BME280;72736;50.236;18.876;2024-03-02T13:22:38;98138.00;;;10.60;81.08
82949;BME280;72736;50.236;18.876;2024-03-02T13:27:41;98134.57;;;10.60;81.00
82949;BME280;72736;50.236;18.876;2024-03-02T13:32:46;98135.52;;;10.60;81.07
82949;BME280;72736;50.236;18.876;2024-03-02T13:37:49;98133.15;;;10.59;81.49
82949;BME280;72736;50.236;18.876;2024-03-02T13:42:52;98135.70;;;10.57;81.77
82949;BME280;72736;50.236;18.876;2024-03-02T13:47:56;98134.08;;;10.55;81.61
82949;BME280;72736;50.236;18.876;2024-03-02T13:52:59;98136.29;;;10.52;82.05
82949;BME280;72736;50.236;18.876;2024-03-02T13:58:02;98135.86;;;10.50;82.22
82949;BME280;72736;50.236;18.876;2024-03-02T14:03:06;98133.13;;;10.49;82.45
82949;BME280;72736;50.236;18.876;2024-03-02T14:08:09;98132.77;;;10.48;82.72
82949;BME280;72736;50.236;18.876;2024-03-02T14:13:13;98131.45;;;10.50;82.88
82949;BME280;72736;50.236;18.876;2024-03-02T14:18:17;98125.22;;;10.51;82.82
82949;BME280;72736;50.236;18.876;2024-03-02T14:23:19;98126.20;;;10.54;83.18
82949;BME280;72736;50.236;18.876;2024-03-02T14:28:23;98125.42;;;10.56;83.37
82949;BME280;72736;50.236;18.876;2024-03-02T14:33:46;98125.91;;;10.58;83.52
82949;BME280;72736;50.236;18.876;2024-03-02T14:38:49;98124.23;;;10.60;83.84
82949;BME280;72736;50.236;18.876;2024-03-02T14:43:53;98118.84;;;10.63;83.71
82949;BME280;72736;50.236;18.876;2024-03-02T14:48:56;98117.27;;;10.64;83.73
82949;BME280;72736;50.236;18.876;2024-03-02T14:54:00;98114.45;;;10.66;83.73
82949;BME280;72736;50.236;18.876;2024-03-02T14:59:03;98110.31;;;10.67;83.56
82949;BME280;72736;50.236;18.876;2024-03-02T15:04:07;98105.97;;;10.67;83.41
82949;BME280;72736;50.236;18.876;2024-03-02T15:09:11;98099.02;;;10.67;83.61
82949;BME280;72736;50.236;18.876;2024-03-02T15:14:14;98105.91;;;10.67;83.81
82949;BME280;72736;50.236;18.876;2024-03-02T15:19:17;98102.17;;;10.65;83.93
82949;BME280;72736;50.236;18.876;2024-03-02T15:24:20;98098.23;;;10.63;83.90
82949;BME280;72736;50.236;18.876;2024-03-02T15:29:23;98101.16;;;10.60;83.85
82949;BME280;72736;50.236;18.876;2024-03-02T15:34:31;98102.44;;;10.55;84.03
82949;BME280;72736;50.236;18.876;2024-03-02T15:39:34;98111.55;;;10.51;84.09
82949;BME280;72736;50.236;18.876;2024-03-02T15:44:41;98112.80;;;10.47;84.27
82949;BME280;72736;50.236;18.876;2024-03-02T15:49:46;98115.91;;;10.43;84.38
82949;BME280;72736;50.236;18.876;2024-03-02T15:54:49;98124.23;;;10.39;84.37
82949;BME280;72736;50.236;18.876;2024-03-02T15:59:52;98124.62;;;10.35;84.49
82949;BME280;72736;50.236;18.876;2024-03-02T16:04:55;98123.38;;;10.34;84.43
82949;BME280;72736;50.236;18.876;2024-03-02T16:09:58;98123.83;;;10.33;84.64
82949;BME280;72736;50.236;18.876;2024-03-02T16:15:06;98123.64;;;10.30;84.55
82949;BME280;72736;50.236;18.876;2024-03-02T16:20:12;98125.13;;;10.28;84.54
82949;BME280;72736;50.236;18.876;2024-03-02T16:25:15;98114.92;;;10.24;84.55
82949;BME280;72736;50.236;18.876;2024-03-02T16:30:18;98117.15;;;10.21;84.68
82949;BME280;72736;50.236;18.876;2024-03-02T16:35:22;98116.21;;;10.16;84.61
82949;BME280;72736;50.236;18.876;2024-03-02T16:40:25;98116.39;;;10.10;84.60
82949;BME280;72736;50.236;18.876;2024-03-02T16:45:28;98110.73;;;10.06;84.75
82949;BME280;72736;50.236;18.876;2024-03-02T16:50:32;98113.30;;;10.04;84.77
82949;BME280;72736;50.236;18.876;2024-03-02T16:55:35;98119.89;;;10.04;84.67
82949;BME280;72736;50.236;18.876;2024-03-02T17:00:38;98122.40;;;10.04;84.79
82949;BME280;72736;50.236;18.876;2024-03-02T17:05:41;98121.77;;;10.02;84.81
82949;BME280;72736;50.236;18.876;2024-03-02T17:10:44;98121.68;;;10.00;84.90
82949;BME280;72736;50.236;18.876;2024-03-02T17:15:48;98120.20;;;9.97;84.90
82949;BME280;72736;50.236;18.876;2024-03-02T17:20:51;98122.36;;;9.96;84.94
82949;BME280;72736;50.236;18.876;2024-03-02T17:25:54;98121.15;;;9.95;84.84
82949;BME280;72736;50.236;18.876;2024-03-02T17:30:57;98121.56;;;9.92;84.92
82949;BME280;72736;50.236;18.876;2024-03-02T17:36:01;98121.28;;;9.89;85.00
82949;BME280;72736;50.236;18.876;2024-03-02T17:41:04;98119.90;;;9.87;84.87
82949;BME280;72736;50.236;18.876;2024-03-02T17:46:09;98114.75;;;9.85;84.90
82949;BME280;72736;50.236;18.876;2024-03-02T17:51:12;98115.98;;;9.83;84.94
82949;BME280;72736;50.236;18.876;2024-03-02T17:56:16;98115.73;;;9.81;85.01
82949;BME280;72736;50.236;18.876;2024-03-02T18:01:19;98116.03;;;9.76;84.83
82949;BME280;72736;50.236;18.876;2024-03-02T18:06:22;98121.48;;;9.71;84.96
82949;BME280;72736;50.236;18.876;2024-03-02T18:11:24;98121.00;;;9.65;85.05
82949;BME280;72736;50.236;18.876;2024-03-02T18:16:27;98121.94;;;9.59;85.19
82949;BME280;72736;50.236;18.876;2024-03-02T18:21:30;98119.36;;;9.54;85.18
82949;BME280;72736;50.236;18.876;2024-03-02T18:26:34;98118.98;;;9.53;85.15
82949;BME280;72736;50.236;18.876;2024-03-02T18:31:37;98111.41;;;9.50;84.92
82949;BME280;72736;50.236;18.876;2024-03-02T18:36:40;98115.09;;;9.49;84.88
82949;BME280;72736;50.236;18.876;2024-03-02T18:41:43;98109.98;;;9.46;84.66
82949;BME280;72736;50.236;18.876;2024-03-02T18:46:46;98109.30;;;9.42;84.35
82949;BME280;72736;50.236;18.876;2024-03-02T18:51:51;98107.92;;;9.38;84.20
82949;BME280;72736;50.236;18.876;2024-03-02T18:56:54;98109.13;;;9.33;84.19
82949;BME280;72736;50.236;18.876;2024-03-02T19:01:58;98108.60;;;9.29;84.18
82949;BME280;72736;50.236;18.876;2024-03-02T19:07:01;98106.06;;;9.25;83.95
82949;BME280;72736;50.236;18.876;2024-03-02T19:12:05;98112.32;;;9.21;83.64
82949;BME280;72736;50.236;18.876;2024-03-02T19:17:08;98107.77;;;9.17;83.58
82949;BME280;72736;50.236;18.876;2024-03-02T19:22:11;98113.70;;;9.13;83.51
82949;BME280;72736;50.236;18.876;2024-03-02T19:27:14;98106.17;;;9.06;83.44
82949;BME280;72736;50.236;18.876;2024-03-02T19:32:17;98099.67;;;8.99;83.19
82949;BME280;72736;50.236;18.876;2024-03-02T19:37:24;98103.14;;;8.93;83.02
82949;BME280;72736;50.236;18.876;2024-03-02T19:42:27;98098.13;;;8.88;82.90
82949;BME280;72736;50.236;18.876;2024-03-02T19:47:30;98097.67;;;8.83;82.93
82949;BME280;72736;50.236;18.876;2024-03-02T19:52:34;98099.52;;;8.77;82.87
82949;BME280;72736;50.236;18.876;2024-03-02T19:57:37;98098.04;;;8.69;82.59
82949;BME280;72736;50.236;18.876;2024-03-02T20:02:46;98097.95;;;8.57;82.59
82949;BME280;72736;50.236;18.876;2024-03-02T20:07:49;98094.17;;;8.48;82.68
82949;BME280;72736;50.236;18.876;2024-03-02T20:12:52;98093.89;;;8.40;82.83
82949;BME280;72736;50.236;18.876;2024-03-02T20:17:55;98094.19;;;8.34;82.99
82949;BME280;72736;50.236;18.876;2024-03-02T20:22:58;98098.73;;;8.31;82.85
82949;BME280;72736;50.236;18.876;2024-03-02T20:28:01;98101.09;;;8.30;82.62
82949;BME280;72736;50.236;18.876;2024-03-02T20:33:06;98096.30;;;8.28;82.53
82949;BME280;72736;50.236;18.876;2024-03-02T20:38:09;98098.49;;;8.25;82.02
82949;BME280;72736;50.236;18.876;2024-03-02T20:43:12;98098.84;;;8.20;81.96
82949;BME280;72736;50.236;18.876;2024-03-02T20:48:16;98100.18;;;8.16;81.49
82949;BME280;72736;50.236;18.876;2024-03-02T20:53:20;98099.38;;;8.09;81.50
82949;BME280;72736;50.236;18.876;2024-03-02T20:58:23;98100.23;;;8.04;81.76
82949;BME280;72736;50.236;18.876;2024-03-02T21:03:26;98102.49;;;7.99;81.76
82949;BME280;72736;50.236;18.876;2024-03-02T21:08:29;98103.82;;;7.98;81.61
82949;BME280;72736;50.236;18.876;2024-03-02T21:13:32;98104.20;;;7.96;81.79
82949;BME280;72736;50.236;18.876;2024-03-02T21:18:34;98108.06;;;7.94;81.37
82949;BME280;72736;50.236;18.876;2024-03-02T21:23:37;98109.30;;;7.89;81.48
82949;BME280;72736;50.236;18.876;2024-03-02T21:28:40;98099.52;;;7.85;81.80
82949;BME280;72736;50.236;18.876;2024-03-02T21:33:43;98095.02;;;7.83;81.98
82949;BME280;72736;50.236;18.876;2024-03-02T21:38:46;98100.55;;;7.82;81.92
82949;BME280;72736;50.236;18.876;2024-03-02T21:43:49;98109.45;;;7.82;81.83
82949;BME280;72736;50.236;18.876;2024-03-02T21:48:52;98113.22;;;7.80;81.78
82949;BME280;72736;50.236;18.876;2024-03-02T21:53:55;98110.14;;;7.79;82.06
82949;BME280;72736;50.236;18.876;2024-03-02T21:59:00;98111.29;;;7.78;81.72
82949;BME280;72736;50.236;18.876;2024-03-02T22:04:03;98113.36;;;7.77;81.94
82949;BME280;72736;50.236;18.876;2024-03-02T22:09:06;98110.77;;;7.76;81.78
82949;BME280;72736;50.236;18.876;2024-03-02T22:14:09;98114.34;;;7.77;82.11
82949;BME280;72736;50.236;18.876;2024-03-02T22:19:12;98110.75;;;7.78;82.43
82949;BME280;72736;50.236;18.876;2024-03-02T22:24:15;98107.67;;;7.80;83.03
82949;BME280;72736;50.236;18.876;2024-03-02T22:29:18;98103.92;;;7.83;83.28
82949;BME280;72736;50.236;18.876;2024-03-02T22:34:21;98106.05;;;7.84;83.65
82949;BME280;72736;50.236;18.876;2024-03-02T22:39:24;98106.02;;;7.87;83.79
82949;BME280;72736;50.236;18.876;2024-03-02T22:44:27;98103.46;;;7.89;83.76
82949;BME280;72736;50.236;18.876;2024-03-02T22:49:30;98105.31;;;7.88;83.77
82949;BME280;72736;50.236;18.876;2024-03-02T22:54:33;98103.15;;;7.86;83.72
82949;BME280;72736;50.236;18.876;2024-03-02T22:59:36;98102.10;;;7.84;83.77
82949;BME280;72736;50.236;18.876;2024-03-02T23:04:39;98097.98;;;7.82;83.77
82949;BME280;72736;50.236;18.876;2024-03-02T23:09:42;98097.54;;;7.80;83.90
82949;BME280;72736;50.236;18.876;2024-03-02T23:14:45;98101.89;;;7.79;84.21
82949;BME280;72736;50.236;18.876;2024-03-02T23:19:48;98101.11;;;7.80;84.22
82949;BME280;72736;50.236;18.876;2024-03-02T23:24:51;98096.80;;;7.80;84.35
82949;BME280;72736;50.236;18.876;2024-03-02T23:29:54;98093.90;;;7.79;84.26
82949;BME280;72736;50.236;18.876;2024-03-02T23:34:56;98092.68;;;7.77;84.32
82949;BME280;72736;50.236;18.876;2024-03-02T23:39:59;98090.64;;;7.75;84.50
82949;BME280;72736;50.236;18.876;2024-03-02T23:45:27;98088.71;;;7.75;84.43
82949;BME280;72736;50.236;18.876;2024-03-02T23:50:30;98083.77;;;7.71;84.45
82949;BME280;72736;50.236;18.876;2024-03-02T23:55:33;98079.61;;;7.69;84.43
